Pagrindinis puslapis
METAR-TAF:

METAR-TAF

Oro uostai :

Al Khardj, Saudo Arabija

platuma: 24-03-19N, ilguma: 047-33-49E, Aukštis: 503 m

Dabartinis oras

Ataskaita buvo paskelbta 2 valandos ir 33 minutes, ne 15:00 UTC
Vėjas 4 kt iš Šiaurės
Temperatūra 33°C
Drėgmė 14%
Slėgis 1019 hPa
Matomumas 10 km arba daugiau

METAR: OEKJ 171500Z 35004KT 9999 NSC 33/02 Q1019

Laikas: 20:33 (17:33 UTC)

Prognozė

Ataskaita buvo paskelbta 6 valandos ir 33 minutes, ne 11:00 UTC
Prognozė galioja nuo 17 metu 12 UTC su 18 metu 18 UTC
Vėjas 12 kt iš Rytų/Šiaurės Rytų
Matomumas 10 km arba daugiau
Mažai debesys ne aukštis 4000 ft
Tapsmas
nuo 17 metu 18 UTC su 17 metu 20 UTC
Vėjas 3 kt nuo kintamojo kryptimis

TAF: OEKJ 171100Z 1712/1818 06012KT 9999 FEW040 BECMG 1718/1720 VRB03KT

Orai ataskaitas ir orų prognozės (METAR, TAF).

turimą stotys yra geltonos ir raudonos taškus žemėlapyje.

Perkelti pele per norėdami pamatyti stoties vardą.

Tada spustelėkite, norėdami matyti oro stebėjimo ir prognozės.

Norėdami pakeisti žemėlapį: spustelėkite ant žalios mygtukų su juodo kryžiaus žemyn,; žalią mygtuką su brūkšneliu, jei norite nutolinti; arba žalių rodyklių gretimoms žemėlapius.


METAR-TAF: